createdAt,value
2018-07-20T00:02:11.055Z,20.30
2018-07-20T00:04:39.464Z,20.30
2018-07-20T00:07:07.833Z,20.30
2018-07-20T00:09:36.202Z,20.20
2018-07-20T00:12:04.568Z,20.20
2018-07-20T00:14:32.949Z,20.20
2018-07-20T00:17:01.322Z,20.10
2018-07-20T00:19:29.744Z,20.10
2018-07-20T00:21:58.102Z,20.00
2018-07-20T00:24:26.491Z,19.90
2018-07-20T00:26:54.838Z,19.90
2018-07-20T00:29:23.215Z,19.80
2018-07-20T00:31:51.549Z,19.70
2018-07-20T00:34:19.951Z,19.70
2018-07-20T00:36:48.289Z,19.70
2018-07-20T00:39:16.676Z,19.70
2018-07-20T00:41:45.021Z,19.60
2018-07-20T00:44:13.389Z,19.60
2018-07-20T00:51:37.904Z,19.70
2018-07-20T00:54:06.277Z,19.60
2018-07-20T00:56:34.612Z,19.60
2018-07-20T00:59:02.976Z,19.60
2018-07-20T01:01:31.344Z,19.50
2018-07-20T01:03:59.685Z,19.50
2018-07-20T01:06:28.056Z,19.50
2018-07-20T01:08:56.408Z,19.50
2018-07-20T01:11:26.764Z,19.50
2018-07-20T01:13:55.115Z,19.50
2018-07-20T01:16:23.476Z,19.40
2018-07-20T01:18:51.821Z,19.40
2018-07-20T01:21:20.189Z,19.40
2018-07-20T01:23:48.538Z,19.40
2018-07-20T01:26:16.901Z,19.30
2018-07-20T01:28:45.234Z,19.30
2018-07-20T01:31:13.604Z,19.20
2018-07-20T01:33:41.947Z,19.20
2018-07-20T01:36:10.324Z,19.20
2018-07-20T01:38:38.670Z,19.20
2018-07-20T01:43:35.199Z,19.10
2018-07-20T01:46:03.559Z,19.10
2018-07-20T01:48:31.917Z,19.10
2018-07-20T01:51:00.304Z,19.10
2018-07-20T01:53:28.639Z,19.10
2018-07-20T01:55:56.991Z,18.90
2018-07-20T01:58:25.346Z,18.90
2018-07-20T02:00:53.777Z,18.80
2018-07-20T02:03:22.183Z,18.90
2018-07-20T02:05:50.523Z,18.90
2018-07-20T02:08:18.850Z,18.90
2018-07-20T02:10:50.747Z,18.90
2018-07-20T02:13:19.091Z,18.80
2018-07-20T02:15:47.431Z,18.80
2018-07-20T02:20:43.828Z,18.70
2018-07-20T02:23:12.143Z,18.70
2018-07-20T02:25:40.492Z,18.70
2018-07-20T02:28:08.819Z,18.80
2018-07-20T02:33:05.245Z,18.80
2018-07-20T02:35:33.605Z,18.80
2018-07-20T02:38:01.927Z,18.90
2018-07-20T02:40:30.276Z,18.90
2018-07-20T02:42:58.700Z,18.90
2018-07-20T02:50:23.199Z,18.80
2018-07-20T02:52:51.596Z,18.80
2018-07-20T02:55:20.068Z,18.80
2018-07-20T02:57:48.441Z,18.80
2018-07-20T03:00:16.809Z,18.80
2018-07-20T03:02:45.167Z,18.80
2018-07-20T03:05:13.484Z,18.80
2018-07-20T03:07:41.912Z,18.70
2018-07-20T03:10:10.248Z,18.70
2018-07-20T03:12:38.664Z,18.70
2018-07-20T03:15:07.044Z,18.80
2018-07-20T03:17:35.447Z,18.80
2018-07-20T03:20:03.800Z,18.80
2018-07-20T03:22:32.162Z,18.80
2018-07-20T03:25:00.491Z,18.80
2018-07-20T03:27:28.851Z,18.70
2018-07-20T03:29:57.220Z,18.70
2018-07-20T03:32:25.560Z,18.70
2018-07-20T03:34:53.927Z,18.70
2018-07-20T03:37:22.282Z,18.70
2018-07-20T03:39:50.647Z,18.80
2018-07-20T03:42:18.996Z,18.70
2018-07-20T03:47:15.437Z,18.60
2018-07-20T03:49:43.816Z,18.60
2018-07-20T03:52:12.166Z,18.70
2018-07-20T03:54:40.547Z,18.70
2018-07-20T03:57:08.928Z,18.70
2018-07-20T03:59:37.357Z,18.70
2018-07-20T04:02:05.727Z,18.70
2018-07-20T04:07:02.211Z,18.70
2018-07-20T04:09:30.600Z,18.70
2018-07-20T04:11:58.944Z,18.60
2018-07-20T04:16:55.391Z,18.60
2018-07-20T04:19:23.764Z,18.60
2018-07-20T04:21:52.116Z,18.60
2018-07-20T04:24:20.560Z,18.60
2018-07-20T04:26:48.909Z,18.60
2018-07-20T04:31:45.325Z,18.60
2018-07-20T04:34:13.663Z,18.60
2018-07-20T04:36:42.043Z,18.60
2018-07-20T04:39:12.855Z,18.70
2018-07-20T04:44:09.720Z,18.70
2018-07-20T04:49:06.376Z,18.70
2018-07-20T04:56:31.428Z,18.60
2018-07-20T04:58:59.792Z,18.70
2018-07-20T05:03:56.265Z,18.80
2018-07-20T05:06:24.615Z,18.80
2018-07-20T05:08:52.940Z,18.80
2018-07-20T05:11:21.329Z,18.90
2018-07-20T05:13:49.651Z,18.90
2018-07-20T05:16:18.384Z,18.90
2018-07-20T05:18:46.731Z,19.00
2018-07-20T05:21:15.074Z,19.00
2018-07-20T05:23:43.421Z,19.00
2018-07-20T05:26:11.778Z,19.00
2018-07-20T05:28:40.083Z,19.00
2018-07-20T05:31:08.406Z,19.00
2018-07-20T05:33:36.760Z,19.10
2018-07-20T05:36:05.138Z,19.20
2018-07-20T05:38:33.498Z,19.20
2018-07-20T05:41:01.815Z,19.20
2018-07-20T05:43:30.150Z,19.30
2018-07-20T05:45:58.491Z,19.40
2018-07-20T05:48:26.881Z,19.40
2018-07-20T05:53:23.322Z,19.40
2018-07-20T05:55:51.631Z,19.50
2018-07-20T05:58:20.007Z,19.60
2018-07-20T06:00:48.382Z,19.60
2018-07-20T06:05:44.827Z,19.60
2018-07-20T06:10:41.311Z,19.70
2018-07-20T06:13:09.658Z,19.70
2018-07-20T06:15:37.982Z,19.80
2018-07-20T06:18:06.324Z,19.70
2018-07-20T06:30:27.634Z,19.90
2018-07-20T06:32:56.253Z,19.90
2018-07-20T06:35:24.683Z,20.00
2018-07-20T06:45:17.256Z,20.20
2018-07-20T06:47:45.575Z,20.20
2018-07-20T06:50:16.603Z,20.30
2018-07-20T06:52:45.882Z,20.30
2018-07-20T06:55:14.239Z,20.30
2018-07-20T06:57:42.680Z,20.30
2018-07-20T07:00:11.030Z,20.40
2018-07-20T07:02:39.386Z,20.40
2018-07-20T07:05:09.039Z,20.50
2018-07-20T07:07:37.359Z,20.60
2018-07-20T07:10:06.407Z,20.70
2018-07-20T07:12:34.743Z,20.70
2018-07-20T07:15:03.188Z,20.80
2018-07-20T07:17:31.487Z,20.90
2018-07-20T07:19:59.814Z,21.00
2018-07-20T07:22:28.135Z,21.00
2018-07-20T07:24:56.472Z,21.10
2018-07-20T07:29:52.943Z,21.20
2018-07-20T07:32:21.266Z,21.20
2018-07-20T07:34:49.660Z,21.30
2018-07-20T07:37:17.980Z,21.30
2018-07-20T07:42:14.516Z,21.40
2018-07-20T07:44:42.787Z,21.50
2018-07-20T07:47:11.180Z,21.70
2018-07-20T07:52:07.711Z,21.80
2018-07-20T07:54:36.065Z,21.90
2018-07-20T07:57:04.399Z,21.90
2018-07-20T08:02:00.825Z,22.00
2018-07-20T08:04:29.189Z,22.00
2018-07-20T08:06:57.515Z,22.00
2018-07-20T08:11:53.943Z,22.20
2018-07-20T08:14:22.714Z,22.30
2018-07-20T08:16:51.027Z,22.40
2018-07-20T08:24:15.552Z,22.50
2018-07-20T08:29:12.039Z,22.60
2018-07-20T08:31:40.371Z,22.70
2018-07-20T08:34:08.730Z,22.90
2018-07-20T08:36:37.072Z,23.00
2018-07-20T08:39:07.664Z,23.10
2018-07-20T08:41:36.004Z,23.10
2018-07-20T08:44:04.331Z,23.20
2018-07-20T08:49:00.788Z,23.30
2018-07-20T08:51:29.167Z,23.40
2018-07-20T08:56:25.588Z,23.60
2018-07-20T08:58:53.947Z,23.70
2018-07-20T09:01:22.286Z,23.90
2018-07-20T09:03:50.595Z,23.90
2018-07-20T09:06:18.919Z,24.10
2018-07-20T09:08:47.235Z,24.20
2018-07-20T09:11:15.651Z,24.20
2018-07-20T09:13:43.997Z,24.40
2018-07-20T09:16:12.315Z,24.40
2018-07-20T09:18:40.816Z,24.50
2018-07-20T09:21:09.192Z,24.60
2018-07-20T09:23:37.503Z,24.60
2018-07-20T09:26:05.839Z,24.60
2018-07-20T09:28:34.157Z,24.70
2018-07-20T09:31:02.512Z,24.80
2018-07-20T09:35:58.915Z,25.10
2018-07-20T09:38:27.223Z,25.20
2018-07-20T09:40:55.567Z,25.40
2018-07-20T09:43:23.897Z,25.40
2018-07-20T09:45:52.285Z,25.50
2018-07-20T09:50:48.736Z,25.70
2018-07-20T09:53:17.071Z,25.80
2018-07-20T09:55:45.440Z,25.90
2018-07-20T09:58:13.810Z,26.00
2018-07-20T10:00:47.448Z,26.20
2018-07-20T10:03:15.793Z,26.30
2018-07-20T10:05:44.463Z,26.30
2018-07-20T10:08:12.791Z,26.50
2018-07-20T10:10:41.192Z,26.60
2018-07-20T10:13:09.509Z,26.80
2018-07-20T10:15:37.954Z,26.90
2018-07-20T10:18:06.276Z,27.00
2018-07-20T10:20:34.682Z,27.10
2018-07-20T10:23:03.108Z,27.20
2018-07-20T10:25:32.024Z,27.30
2018-07-20T10:28:00.351Z,27.40
2018-07-20T10:30:28.737Z,27.50
2018-07-20T10:32:57.103Z,27.60
2018-07-20T10:35:25.407Z,27.80
2018-07-20T10:45:21.790Z,28.30
2018-07-20T10:47:50.131Z,28.40
2018-07-20T10:50:18.443Z,28.50
2018-07-20T10:52:46.805Z,28.70
2018-07-20T10:55:15.122Z,28.80
2018-07-20T11:00:11.519Z,29.10
2018-07-20T11:02:39.939Z,29.20
2018-07-20T11:05:08.303Z,29.20
2018-07-20T11:07:36.636Z,29.30
2018-07-20T11:10:05.271Z,29.40
2018-07-20T11:12:33.611Z,29.50
2018-07-20T11:15:01.982Z,29.70
2018-07-20T11:17:30.327Z,29.80
2018-07-20T11:22:26.723Z,30.10
2018-07-20T11:24:55.051Z,30.30
2018-07-20T11:27:23.403Z,30.40
2018-07-20T11:29:51.727Z,30.60
2018-07-20T11:34:48.170Z,30.80
2018-07-20T11:37:16.527Z,30.90
2018-07-20T11:39:45.115Z,30.90
2018-07-20T11:42:13.462Z,31.00
2018-07-20T11:44:41.784Z,31.20
2018-07-20T11:47:10.142Z,31.40
2018-07-20T11:49:38.501Z,31.60
2018-07-20T11:52:06.865Z,31.70
2018-07-20T11:54:35.177Z,31.80
2018-07-20T11:57:03.553Z,32.00
2018-07-20T11:59:31.867Z,32.10
2018-07-20T12:06:56.460Z,32.50
2018-07-20T12:09:24.772Z,32.60
2018-07-20T12:14:21.267Z,32.80
2018-07-20T12:16:49.595Z,32.90
2018-07-20T12:19:17.943Z,33.10
2018-07-20T12:21:46.263Z,33.10
2018-07-20T12:26:42.668Z,33.20
2018-07-20T12:29:11.311Z,33.30
2018-07-20T12:34:07.773Z,33.30
2018-07-20T12:36:36.072Z,33.50
2018-07-20T12:39:06.379Z,33.70
2018-07-20T12:41:34.697Z,33.90
2018-07-20T12:44:03.040Z,33.90
2018-07-20T12:46:31.364Z,33.90
2018-07-20T12:48:59.719Z,33.80
2018-07-20T12:51:28.050Z,33.90
2018-07-20T12:56:24.503Z,33.90
2018-07-20T13:01:20.963Z,33.90
2018-07-20T13:06:17.367Z,34.10
2018-07-20T13:08:46.108Z,34.20
2018-07-20T13:11:14.523Z,34.30
2018-07-20T13:13:42.894Z,34.30
2018-07-20T13:16:11.220Z,34.20
2018-07-20T13:18:39.564Z,34.20
2018-07-20T13:21:07.891Z,34.10
2018-07-20T13:23:36.291Z,34.20
2018-07-20T13:28:32.758Z,34.20
2018-07-20T13:31:01.112Z,33.90
2018-07-20T13:33:29.473Z,33.70
2018-07-20T13:35:57.787Z,33.60
2018-07-20T13:38:26.367Z,33.50
2018-07-20T13:40:54.704Z,33.70
2018-07-20T13:43:23.045Z,33.80
2018-07-20T13:45:51.360Z,34.00
2018-07-20T13:48:19.834Z,34.10
2018-07-20T13:50:48.195Z,34.20
2018-07-20T13:53:16.536Z,34.30
2018-07-20T13:55:44.860Z,34.30
2018-07-20T13:58:13.235Z,34.40
2018-07-20T14:00:41.571Z,34.50
2018-07-20T14:05:39.961Z,34.80
2018-07-20T14:13:04.471Z,35.10
2018-07-20T14:15:33.647Z,35.10
2018-07-20T14:18:02.005Z,35.20
2018-07-20T14:20:30.379Z,35.10
2018-07-20T14:22:58.715Z,35.00
2018-07-20T14:25:27.062Z,35.00
2018-07-20T14:27:55.427Z,35.10
2018-07-20T14:30:23.772Z,35.10
2018-07-20T14:32:52.096Z,35.30
2018-07-20T14:35:20.439Z,35.50
2018-07-20T14:37:48.762Z,35.70
2018-07-20T14:40:17.172Z,36.00
2018-07-20T14:42:45.493Z,36.30
2018-07-20T14:45:13.839Z,36.60
2018-07-20T14:52:38.294Z,36.90
2018-07-20T14:55:06.635Z,37.00
2018-07-20T15:02:31.143Z,36.40
2018-07-20T15:04:59.492Z,36.30
2018-07-20T15:07:27.812Z,36.20
2018-07-20T15:17:20.400Z,35.80
2018-07-20T15:19:48.770Z,35.70
2018-07-20T15:22:17.091Z,35.60
2018-07-20T15:24:45.446Z,35.60
2018-07-20T15:27:13.764Z,35.70
2018-07-20T15:29:42.103Z,35.70
2018-07-20T15:37:06.634Z,36.00
2018-07-20T15:39:35.021Z,36.10
2018-07-20T15:42:03.351Z,36.10
2018-07-20T15:44:31.691Z,36.20
2018-07-20T15:47:00.267Z,36.30
2018-07-20T15:49:28.393Z,36.50
2018-07-20T15:53:35.460Z,36.60
2018-07-20T15:54:25.092Z,36.70
2018-07-20T15:59:21.562Z,37.00
2018-07-20T16:01:49.907Z,37.10
2018-07-20T16:04:18.270Z,37.30
2018-07-20T16:06:46.675Z,37.30
2018-07-20T16:09:15.014Z,37.30
2018-07-20T16:11:43.444Z,37.30
2018-07-20T16:14:11.740Z,37.40
2018-07-20T16:16:40.087Z,37.40
2018-07-20T16:19:08.483Z,37.40
2018-07-20T16:24:04.896Z,37.20
2018-07-20T16:26:33.248Z,37.20
2018-07-20T16:29:01.572Z,37.30
2018-07-20T16:31:29.927Z,37.20
2018-07-20T16:33:58.239Z,37.10
2018-07-20T16:36:26.595Z,37.00
2018-07-20T16:38:54.914Z,36.90
2018-07-20T16:41:23.244Z,36.90
2018-07-20T16:43:51.619Z,37.00
2018-07-20T16:46:20.052Z,37.00
2018-07-20T16:51:16.472Z,37.00
2018-07-20T16:53:44.812Z,37.00
2018-07-20T16:56:13.158Z,37.00
2018-07-20T17:01:10.224Z,37.00
2018-07-20T17:06:06.683Z,37.00
2018-07-20T17:11:03.108Z,37.10
2018-07-20T17:13:31.444Z,37.10
2018-07-20T17:15:59.810Z,37.00
2018-07-20T17:18:28.130Z,36.90
2018-07-20T17:20:56.494Z,36.80
2018-07-20T17:23:24.814Z,36.80
2018-07-20T17:25:53.149Z,36.90
2018-07-20T17:28:21.483Z,36.70
2018-07-20T17:30:49.827Z,36.70
2018-07-20T17:33:18.150Z,36.50
2018-07-20T17:35:46.511Z,36.30
2018-07-20T17:43:11.062Z,35.50
2018-07-20T17:45:39.433Z,35.50
2018-07-20T17:50:35.860Z,35.70
2018-07-20T17:53:04.203Z,35.90
2018-07-20T17:55:32.572Z,36.00
2018-07-20T17:58:00.956Z,36.00
2018-07-20T18:00:29.306Z,35.90
2018-07-20T18:02:57.647Z,35.70
2018-07-20T18:05:25.972Z,35.50
2018-07-20T18:07:54.329Z,35.30
2018-07-20T18:12:50.763Z,34.80
2018-07-20T18:15:19.097Z,34.50
2018-07-20T18:17:47.472Z,34.20
2018-07-20T18:20:15.801Z,34.00
2018-07-20T18:22:44.148Z,33.70
2018-07-20T18:25:13.176Z,33.40
2018-07-20T18:27:41.516Z,33.20
2018-07-20T18:30:09.848Z,33.00
2018-07-20T18:32:38.195Z,32.80
2018-07-20T18:35:06.585Z,32.70
2018-07-20T18:37:34.932Z,32.50
2018-07-20T18:40:03.288Z,32.30
2018-07-20T18:42:31.640Z,32.10
2018-07-20T18:47:28.083Z,31.80
2018-07-20T18:49:56.406Z,31.60
2018-07-20T18:52:24.772Z,31.50
2018-07-20T18:54:53.086Z,31.30
2018-07-20T18:57:21.455Z,31.20
2018-07-20T18:59:49.792Z,31.10
2018-07-20T19:02:18.142Z,31.00
2018-07-20T19:04:46.460Z,30.80
2018-07-20T19:07:14.865Z,30.70
2018-07-20T19:09:43.191Z,30.50
2018-07-20T19:12:11.539Z,30.30
2018-07-20T19:14:39.958Z,30.20
2018-07-20T19:17:08.341Z,30.10
2018-07-20T19:19:36.661Z,29.90
2018-07-20T19:22:05.000Z,29.80
2018-07-20T19:24:33.339Z,29.70
2018-07-20T19:27:01.718Z,29.50
2018-07-20T19:29:30.028Z,29.40
2018-07-20T19:31:58.372Z,29.30
2018-07-20T19:34:26.737Z,29.20
2018-07-20T19:36:55.047Z,29.10
2018-07-20T19:39:23.387Z,28.90
2018-07-20T19:41:51.701Z,28.80
2018-07-20T19:44:20.051Z,28.70
2018-07-20T19:46:48.383Z,28.50
2018-07-20T19:49:16.728Z,28.40
2018-07-20T19:51:45.044Z,28.30
2018-07-20T19:54:13.387Z,28.20
2018-07-20T19:56:41.707Z,28.10
2018-07-20T20:01:38.131Z,27.80
2018-07-20T20:04:06.487Z,27.60
2018-07-20T20:06:34.809Z,27.50
2018-07-20T20:09:03.221Z,27.40
2018-07-20T20:11:31.588Z,27.30
2018-07-20T20:16:28.029Z,27.10
2018-07-20T20:18:56.384Z,27.00
2018-07-20T20:21:24.730Z,26.90
2018-07-20T20:23:53.095Z,26.80
2018-07-20T20:26:21.418Z,26.80
2018-07-20T20:28:49.772Z,26.70
2018-07-20T20:31:18.151Z,26.60
2018-07-20T20:33:46.511Z,26.60
2018-07-20T20:36:14.839Z,26.50
2018-07-20T20:38:43.195Z,26.50
2018-07-20T20:41:11.659Z,26.40
2018-07-20T20:43:40.109Z,26.30
2018-07-20T20:46:08.495Z,26.20
2018-07-20T20:51:05.045Z,26.10
2018-07-20T20:53:33.372Z,26.10
2018-07-20T20:56:01.712Z,26.00
2018-07-20T21:00:58.163Z,25.90
2018-07-20T21:05:54.611Z,25.80
2018-07-20T21:10:51.704Z,25.70
2018-07-20T21:13:20.107Z,25.60
2018-07-20T21:15:48.424Z,25.50
2018-07-20T21:18:16.787Z,25.40
2018-07-20T21:20:45.164Z,25.40
2018-07-20T21:23:13.880Z,25.30
2018-07-20T21:28:10.268Z,25.10
2018-07-20T21:30:38.617Z,25.10
2018-07-20T21:35:35.230Z,24.90
2018-07-20T21:38:03.942Z,24.80
2018-07-20T21:40:32.335Z,24.80
2018-07-20T21:45:29.057Z,24.60
2018-07-20T21:47:57.335Z,24.60
2018-07-20T21:50:25.768Z,24.50
2018-07-20T21:52:54.083Z,24.40
2018-07-20T21:55:22.534Z,24.40
2018-07-20T21:57:51.028Z,24.30
2018-07-20T22:00:19.783Z,24.30
2018-07-20T22:02:48.891Z,24.20
2018-07-20T22:05:17.283Z,24.10
2018-07-20T22:07:45.708Z,24.10
2018-07-20T22:12:42.228Z,24.00
2018-07-20T22:15:10.790Z,24.00
2018-07-20T22:17:39.121Z,23.90
2018-07-20T22:20:08.575Z,23.80
2018-07-20T22:22:36.904Z,23.80
2018-07-20T22:25:06.154Z,23.80
2018-07-20T22:27:34.520Z,23.70
2018-07-20T22:32:31.116Z,23.60
2018-07-20T22:34:59.456Z,23.60
2018-07-20T22:37:27.790Z,23.60
2018-07-20T22:39:56.139Z,23.50
2018-07-20T22:42:24.468Z,23.50
2018-07-20T22:44:52.829Z,23.50
2018-07-20T22:47:21.238Z,23.40
2018-07-20T22:49:49.585Z,23.40
2018-07-20T22:52:17.920Z,23.30
2018-07-20T22:54:49.094Z,23.20
2018-07-20T22:57:20.074Z,23.10
2018-07-20T22:59:48.520Z,23.10
2018-07-20T23:02:16.855Z,23.00
2018-07-20T23:04:45.204Z,23.00
2018-07-20T23:07:13.535Z,22.90
2018-07-20T23:09:41.880Z,22.90
2018-07-20T23:12:10.214Z,22.80
2018-07-20T23:14:38.575Z,22.70
2018-07-20T23:17:06.915Z,22.70
2018-07-20T23:19:35.284Z,22.70
2018-07-20T23:22:03.655Z,22.60
2018-07-20T23:24:32.044Z,22.60
2018-07-20T23:27:00.408Z,22.50
2018-07-20T23:29:28.797Z,22.40
2018-07-20T23:31:57.164Z,22.40
2018-07-20T23:34:25.505Z,22.40
2018-07-20T23:36:53.881Z,22.40
2018-07-20T23:39:22.234Z,22.30
2018-07-20T23:41:50.575Z,22.30
2018-07-20T23:44:18.911Z,22.30
2018-07-20T23:46:47.315Z,22.30
2018-07-20T23:49:15.652Z,22.30
2018-07-20T23:51:44.021Z,22.30
2018-07-20T23:54:12.407Z,22.20
2018-07-20T23:56:40.777Z,22.20
2018-07-20T23:59:09.156Z,22.10
